Time;durP1;ratioP1;P1;durP2;ratioP2;P2;SDS_P1;SDS_P2;PMS_P1;PMS_P2;Temp;Humidity;BMP_temperature;BMP_pressure;BME280_temperature;BME280_humidity;BME280_pressure;Samples;Min_cycle;Max_cycle;Signal;HPM_P1;HPM_P2
2022/10/16 00:02:07;;;;;;;5.70;1.52;;;12.70;99.90;;;;;;5043909;28;20105;-83
2022/10/16 00:04:32;;;;;;;9.45;1.63;;;12.70;99.90;;;;;;5044274;28;20480;-83
2022/10/16 00:06:58;;;;;;;4.07;1.42;;;12.70;99.90;;;;;;5026970;28;20400;-83
2022/10/16 00:09:23;;;;;;;3.50;1.40;;;12.70;99.90;;;;;;5060827;28;20041;-83
2022/10/16 00:11:50;;;;;;;5.30;1.67;;;12.70;99.90;;;;;;5060014;28;20107;-84
2022/10/16 00:14:15;;;;;;;3.38;1.30;;;12.70;99.90;;;;;;5027226;28;20060;-84
2022/10/16 00:16:42;;;;;;;3.90;1.42;;;12.60;99.90;;;;;;5027073;28;20040;-84
2022/10/16 00:19:10;;;;;;;5.03;1.30;;;12.70;99.90;;;;;;5059978;28;20048;-84
2022/10/16 00:21:36;;;;;;;4.85;1.75;;;12.70;99.90;;;;;;5060596;28;20048;-84
2022/10/16 00:24:08;;;;;;;4.78;1.30;;;12.60;99.90;;;;;;5059613;28;20102;-83
2022/10/16 00:26:36;;;;;;;9.70;2.20;;;12.70;99.90;;;;;;5043971;28;20052;-83
2022/10/16 00:29:02;;;;;;;3.53;1.30;;;12.60;99.90;;;;;;5061209;28;20041;-84
2022/10/16 00:31:29;;;;;;;7.30;1.55;;;12.60;99.90;;;;;;5059812;28;20041;-84
2022/10/16 00:33:55;;;;;;;6.28;1.50;;;12.60;99.90;;;;;;5059626;28;20044;-83
2022/10/16 00:36:24;;;;;;;3.88;1.20;;;12.60;99.90;;;;;;5059830;28;20087;-83
2022/10/16 00:38:54;;;;;;;4.25;1.05;;;12.50;99.90;;;;;;5060228;28;20053;-83
2022/10/16 00:41:22;;;;;;;3.92;1.40;;;12.50;99.90;;;;;;5042888;28;20048;-83
2022/10/16 00:43:57;;;;;;;8.52;1.83;;;12.40;99.90;;;;;;5043758;28;20049;-84
2022/10/16 00:46:34;;;;;;;3.30;1.10;;;12.40;99.90;;;;;;5042613;28;20045;-84
2022/10/16 00:49:10;;;;;;;3.42;1.35;;;12.40;99.90;;;;;;5059529;28;20079;-84
2022/10/16 00:51:42;;;;;;;3.20;1.33;;;12.30;99.90;;;;;;5060576;28;20289;-84
2022/10/16 00:54:22;;;;;;;5.38;1.83;;;12.30;99.90;;;;;;5059663;28;20036;-83
2022/10/16 00:56:49;;;;;;;3.20;1.23;;;12.30;99.90;;;;;;5059856;28;20045;-83
2022/10/16 00:59:26;;;;;;;3.72;1.40;;;12.30;99.90;;;;;;5026338;28;20048;-83
2022/10/16 01:01:52;;;;;;;7.80;1.70;;;12.20;99.90;;;;;;5058784;28;20049;-84
2022/10/16 01:04:18;;;;;;;2.95;1.20;;;12.30;99.90;;;;;;5042971;28;20097;-83
2022/10/16 01:07:02;;;;;;;3.08;1.20;;;12.30;99.90;;;;;;5058763;28;20048;-83
2022/10/16 01:09:44;;;;;;;8.43;1.15;;;12.30;99.90;;;;;;5059306;28;20637;-83
2022/10/16 01:12:14;;;;;;;;;;;12.30;99.90;;;;;;5042903;28;20102;-82
2022/10/16 01:14:58;;;;;;;2.45;1.25;;;12.40;99.90;;;;;;5042507;28;20264;-83
2022/10/16 01:17:43;;;;;;;3.33;1.48;;;12.30;99.90;;;;;;5059661;28;20045;-83
2022/10/16 01:20:25;;;;;;;3.25;1.35;;;12.40;99.90;;;;;;5058546;28;20106;-83
2022/10/16 01:23:09;;;;;;;2.92;1.17;;;12.40;99.90;;;;;;5058864;28;20037;-84
2022/10/16 01:25:54;;;;;;;3.40;1.40;;;12.40;99.90;;;;;;5042485;28;20041;-83
2022/10/16 01:28:24;;;;;;;5.15;1.52;;;12.40;99.90;;;;;;5058502;28;20041;-84
2022/10/16 01:30:54;;;;;;;2.17;1.30;;;12.40;99.90;;;;;;5042634;28;20041;-84
2022/10/16 01:33:24;;;;;;;6.78;1.67;;;12.40;99.90;;;;;;5058573;28;20138;-83
2022/10/16 01:35:54;;;;;;;5.13;1.42;;;12.30;99.90;;;;;;5059133;28;20079;-84
2022/10/16 01:38:34;;;;;;;3.67;1.60;;;12.30;99.90;;;;;;5042112;28;20101;-83
2022/10/16 01:41:07;;;;;;;2.85;1.30;;;12.30;99.90;;;;;;5058263;28;20041;-84
2022/10/16 01:43:42;;;;;;;4.43;2.35;;;12.20;99.90;;;;;;5042626;28;20049;-84
2022/10/16 01:46:10;;;;;;;2.75;1.70;;;12.20;99.90;;;;;;5059591;28;20121;-83
2022/10/16 01:48:36;;;;;;;2.97;1.45;;;12.20;99.90;;;;;;5041810;28;20032;-84
2022/10/16 01:51:09;;;;;;;4.40;1.65;;;12.30;99.90;;;;;;5042071;28;20055;-83
2022/10/16 01:53:36;;;;;;;4.07;1.35;;;12.30;99.90;;;;;;5058660;28;20057;-84
2022/10/16 01:56:05;;;;;;;2.58;1.52;;;12.30;99.90;;;;;;5042269;28;20096;-84
2022/10/16 01:58:35;;;;;;;6.13;1.70;;;12.40;99.90;;;;;;5040341;28;20132;-84
2022/10/16 02:01:02;;;;;;;5.85;2.20;;;12.40;99.90;;;;;;5058151;28;20036;-84
2022/10/16 02:03:28;;;;;;;6.50;2.03;;;12.40;99.90;;;;;;5041378;28;20087;-83
2022/10/16 02:05:56;;;;;;;2.47;1.40;;;12.40;99.90;;;;;;5058188;28;20052;-84
2022/10/16 02:08:25;;;;;;;4.38;1.40;;;12.50;99.90;;;;;;5041768;28;20046;-84
2022/10/16 02:10:51;;;;;;;4.13;1.70;;;12.40;99.90;;;;;;5057686;28;20057;-84
2022/10/16 02:13:26;;;;;;;8.80;1.63;;;12.50;99.90;;;;;;5042189;28;20102;-84
2022/10/16 02:15:52;;;;;;;6.50;1.95;;;12.50;99.90;;;;;;5057622;28;20045;-83
2022/10/16 02:18:18;;;;;;;2.67;1.80;;;12.50;99.90;;;;;;5059525;28;20053;-84
2022/10/16 02:21:10;;;;;;;3.05;1.77;;;12.50;99.90;;;;;;5025062;28;20041;-85
2022/10/16 02:23:52;;;;;;;;;;;12.50;99.90;;;;;;5041685;28;20098;-84
2022/10/16 02:26:56;;;;;;;4.95;1.70;;;12.50;99.90;;;;;;5058623;28;19924;-84
2022/10/16 02:29:25;;;;;;;12.88;4.25;;;12.50;99.90;;;;;;5018960;28;20187;-84
2022/10/16 02:31:55;;;;;;;3.75;1.60;;;12.40;99.90;;;;;;5061791;28;20041;-83
2022/10/16 02:34:22;;;;;;;3.70;1.65;;;12.50;99.90;;;;;;5043764;28;20780;-84
2022/10/16 02:36:50;;;;;;;2.47;1.58;;;12.50;99.90;;;;;;5057540;28;20081;-84
2022/10/16 02:39:18;;;;;;;2.33;1.55;;;12.50;99.90;;;;;;5041896;28;20102;-84
2022/10/16 02:41:43;;;;;;;3.78;1.42;;;12.60;99.90;;;;;;5057488;28;20071;-84
2022/10/16 02:44:09;;;;;;;3.08;1.80;;;12.60;99.90;;;;;;5058096;28;20053;-84
2022/10/16 02:46:35;;;;;;;4.90;1.65;;;12.60;99.90;;;;;;5057720;28;20132;-84
2022/10/16 02:49:00;;;;;;;7.03;2.25;;;12.60;99.90;;;;;;5057713;28;20529;-84
2022/10/16 02:51:26;;;;;;;7.28;1.60;;;12.70;99.90;;;;;;5059617;28;20048;-84
2022/10/16 02:53:52;;;;;;;5.38;1.60;;;12.60;99.90;;;;;;5041122;28;20029;-84
2022/10/16 02:56:18;;;;;;;2.67;1.58;;;12.60;99.90;;;;;;5058654;28;20045;-84
2022/10/16 02:58:44;;;;;;;3.58;1.48;;;12.70;99.90;;;;;;5057506;28;20056;-84
2022/10/16 03:01:12;;;;;;;5.53;1.60;;;12.60;99.90;;;;;;5041414;28;20582;-84
2022/10/16 03:03:37;;;;;;;2.15;1.65;;;12.70;99.90;;;;;;5046186;28;20049;-84
2022/10/16 03:06:03;;;;;;;5.65;1.95;;;12.70;99.90;;;;;;5058557;28;20140;-84
2022/10/16 03:08:29;;;;;;;2.45;1.63;;;12.70;99.90;;;;;;5041417;28;20109;-84
2022/10/16 03:10:55;;;;;;;3.65;1.30;;;12.70;99.90;;;;;;5044086;28;20053;-84
2022/10/16 03:13:20;;;;;;;2.47;1.52;;;12.70;99.90;;;;;;5061994;28;20087;-83
2022/10/16 03:15:46;;;;;;;3.25;1.52;;;12.70;99.90;;;;;;5044316;28;20061;-85
2022/10/16 03:18:12;;;;;;;6.57;2.20;;;12.70;99.90;;;;;;5061706;28;20051;-84
2022/10/16 03:20:38;;;;;;;3.65;1.40;;;12.80;99.90;;;;;;5027974;28;20052;-83
2022/10/16 03:23:04;;;;;;;3.22;1.85;;;12.80;99.90;;;;;;5044569;28;20045;-85
2022/10/16 03:25:29;;;;;;;2.45;1.45;;;12.80;99.90;;;;;;5044717;28;20158;-84
2022/10/16 03:27:55;;;;;;;3.22;1.70;;;12.80;99.90;;;;;;5044505;28;20099;-84
2022/10/16 03:30:21;;;;;;;3.22;1.45;;;12.80;99.90;;;;;;5044914;28;20055;-84
2022/10/16 03:32:46;;;;;;;3.00;1.10;;;12.80;99.90;;;;;;5044052;28;20108;-84
2022/10/16 03:35:12;;;;;;;3.30;1.60;;;12.80;99.90;;;;;;5045046;28;20052;-84
2022/10/16 03:37:38;;;;;;;11.02;1.77;;;12.80;99.90;;;;;;5044197;28;20471;-84
2022/10/16 03:40:04;;;;;;;3.75;1.55;;;12.80;99.90;;;;;;5027824;28;20049;-84
2022/10/16 03:42:30;;;;;;;1.95;1.55;;;12.80;99.90;;;;;;5061010;28;20045;-84
2022/10/16 03:44:55;;;;;;;4.53;1.90;;;12.70;99.90;;;;;;5044051;28;20506;-84
2022/10/16 03:47:23;;;;;;;6.53;1.85;;;12.80;99.90;;;;;;5044565;28;20134;-84
2022/10/16 03:49:49;;;;;;;4.18;1.77;;;12.80;99.90;;;;;;5061703;28;20106;-84
2022/10/16 03:52:15;;;;;;;7.15;2.03;;;12.70;99.90;;;;;;5061207;28;20098;-84
2022/10/16 03:54:41;;;;;;;5.80;2.15;;;12.70;99.90;;;;;;5043847;28;20043;-84
2022/10/16 03:57:07;;;;;;;4.43;1.95;;;12.70;99.90;;;;;;5027506;28;20048;-85
2022/10/16 03:59:33;;;;;;;2.97;1.55;;;12.60;99.90;;;;;;5027337;28;20044;-84
2022/10/16 04:01:58;;;;;;;2.88;1.73;;;12.70;99.90;;;;;;5060300;28;20056;-85
2022/10/16 04:04:24;;;;;;;5.78;1.92;;;12.60;99.90;;;;;;5028000;28;20044;-84
2022/10/16 04:06:51;;;;;;;4.43;2.05;;;12.60;99.90;;;;;;5026983;28;20478;-84
2022/10/16 04:09:16;;;;;;;4.47;2.35;;;12.50;99.90;;;;;;5027743;28;20056;-84
2022/10/16 04:11:42;;;;;;;4.65;1.90;;;12.40;99.90;;;;;;5043277;28;20053;-84
2022/10/16 04:14:08;;;;;;;10.50;2.55;;;12.40;99.90;;;;;;5043694;28;20037;-84
2022/10/16 04:16:34;;;;;;;5.45;1.98;;;12.40;99.90;;;;;;5060217;28;20044;-84
2022/10/16 04:19:00;;;;;;;5.32;2.05;;;12.30;99.90;;;;;;5060539;28;20052;-84
2022/10/16 04:21:25;;;;;;;3.92;2.10;;;12.30;99.90;;;;;;5060091;28;20519;-83
2022/10/16 04:23:52;;;;;;;5.68;2.67;;;12.30;99.90;;;;;;5027018;28;20132;-83
2022/10/16 04:26:18;;;;;;;5.15;1.90;;;12.30;99.90;;;;;;5060596;28;20053;-84
2022/10/16 04:28:44;;;;;;;3.75;1.85;;;12.30;99.90;;;;;;5042940;28;20037;-83
2022/10/16 04:31:09;;;;;;;3.55;2.15;;;12.30;99.90;;;;;;5059930;28;20057;-84
2022/10/16 04:33:35;;;;;;;3.72;2.28;;;12.30;99.90;;;;;;5059759;28;20570;-84
2022/10/16 04:36:02;;;;;;;4.93;2.20;;;12.30;99.90;;;;;;5059651;28;20048;-84
2022/10/16 04:38:28;;;;;;;6.40;2.28;;;12.30;99.90;;;;;;5043460;28;20067;-84
2022/10/16 04:40:53;;;;;;;7.05;2.20;;;12.30;99.90;;;;;;5042921;28;20045;-84
2022/10/16 04:43:20;;;;;;;5.68;2.00;;;12.40;99.90;;;;;;5027415;28;20072;-83
2022/10/16 04:45:45;;;;;;;4.80;2.10;;;12.30;99.90;;;;;;5042607;28;20052;-84
2022/10/16 04:48:12;;;;;;;3.35;2.00;;;12.30;99.90;;;;;;5060084;28;20041;-83
2022/10/16 04:50:38;;;;;;;3.47;1.70;;;12.40;99.90;;;;;;5059515;28;20105;-84
2022/10/16 04:53:04;;;;;;;4.60;2.10;;;12.40;99.90;;;;;;5059312;28;20049;-84
2022/10/16 04:55:29;;;;;;;4.53;2.20;;;12.40;99.90;;;;;;5043343;28;20057;-83
2022/10/16 04:57:55;;;;;;;2.25;2.03;;;12.40;99.90;;;;;;5042485;28;20432;-84
2022/10/16 05:00:22;;;;;;;3.08;2.20;;;12.40;99.90;;;;;;5026479;28;20052;-84
2022/10/16 05:02:49;;;;;;;3.97;2.20;;;12.40;99.90;;;;;;5058805;28;20049;-84
2022/10/16 05:05:15;;;;;;;3.90;1.85;;;12.40;99.90;;;;;;5059600;28;20044;-84
2022/10/16 05:07:40;;;;;;;3.67;1.90;;;12.40;99.90;;;;;;5045567;28;20056;-84
2022/10/16 05:10:06;;;;;;;3.40;1.92;;;12.40;99.90;;;;;;5029484;28;20048;-84
2022/10/16 05:12:32;;;;;;;3.97;2.10;;;12.30;99.90;;;;;;5042601;28;20049;-84
2022/10/16 05:14:58;;;;;;;6.20;1.80;;;12.30;99.90;;;;;;5059123;28;20080;-84
2022/10/16 05:17:25;;;;;;;3.10;2.20;;;12.30;99.90;;;;;;5059706;28;20508;-84
2022/10/16 05:19:51;;;;;;;10.48;2.13;;;12.30;99.90;;;;;;5042272;28;20863;-84
2022/10/16 05:22:17;;;;;;;5.80;2.20;;;12.30;99.90;;;;;;5042588;28;20044;-84
2022/10/16 05:24:42;;;;;;;2.95;1.83;;;12.30;99.90;;;;;;5059995;28;20098;-84
2022/10/16 05:27:09;;;;;;;5.05;2.08;;;12.30;99.90;;;;;;5025903;28;20045;-85
2022/10/16 05:29:35;;;;;;;3.33;1.80;;;12.20;99.90;;;;;;5058760;28;20053;-84
2022/10/16 05:32:00;;;;;;;4.60;2.33;;;12.20;99.90;;;;;;5058439;28;20056;-84
2022/10/16 05:34:26;;;;;;;6.63;2.40;;;12.10;99.90;;;;;;5059151;28;20115;-84
2022/10/16 05:36:52;;;;;;;4.55;2.05;;;12.10;99.90;;;;;;5041897;28;20037;-84
2022/10/16 05:39:17;;;;;;;2.97;1.70;;;12.10;99.90;;;;;;5044911;28;20072;-84
2022/10/16 05:41:43;;;;;;;2.40;1.88;;;12.10;99.90;;;;;;5062121;28;20045;-84
2022/10/16 05:44:09;;;;;;;7.38;1.80;;;12.10;99.90;;;;;;5058608;28;20056;-85
2022/10/16 05:46:35;;;;;;;5.03;2.17;;;12.10;99.90;;;;;;5058368;28;20049;-84
2022/10/16 05:49:01;;;;;;;5.20;1.88;;;12.20;99.90;;;;;;5041864;28;20041;-85
2022/10/16 05:51:26;;;;;;;3.00;2.00;;;12.20;99.90;;;;;;5042194;28;20045;-84
2022/10/16 05:53:52;;;;;;;3.67;2.20;;;12.10;99.90;;;;;;5058062;28;20049;-85
2022/10/16 05:56:18;;;;;;;2.75;1.60;;;12.10;99.90;;;;;;5042674;28;20052;-84
2022/10/16 05:58:44;;;;;;;6.80;1.58;;;12.10;99.90;;;;;;5041273;28;20037;-85
2022/10/16 06:01:16;;;;;;;2.90;1.77;;;12.10;99.90;;;;;;5058377;28;20079;-84
2022/10/16 06:03:42;;;;;;;4.95;1.90;;;12.10;99.90;;;;;;5041488;28;20084;-84
2022/10/16 06:06:15;;;;;;;3.33;1.80;;;12.10;99.90;;;;;;5041382;28;20053;-85
2022/10/16 06:08:42;;;;;;;6.60;2.00;;;12.10;99.90;;;;;;5025636;28;20049;-84
2022/10/16 06:11:10;;;;;;;2.28;1.73;;;12.10;99.90;;;;;;5059026;28;20084;-84
2022/10/16 06:13:36;;;;;;;6.50;1.75;;;12.20;99.90;;;;;;5058566;28;20037;-84
2022/10/16 06:16:03;;;;;;;4.20;1.73;;;12.10;99.90;;;;;;5058140;28;20479;-84
2022/10/16 06:18:29;;;;;;;2.00;1.65;;;12.20;99.90;;;;;;5041490;28;20048;-85
2022/10/16 06:20:56;;;;;;;8.70;1.83;;;12.20;99.90;;;;;;5057702;28;20087;-84
2022/10/16 06:23:22;;;;;;;3.38;1.65;;;12.20;99.90;;;;;;5041252;28;20041;-84
2022/10/16 06:25:48;;;;;;;4.22;1.50;;;12.20;99.90;;;;;;5058574;28;20063;-84
2022/10/16 06:28:14;;;;;;;1.98;1.25;;;12.30;99.90;;;;;;5057622;28;20045;-84
2022/10/16 06:30:40;;;;;;;5.32;3.47;;;12.30;99.90;;;;;;5041579;28;20131;-84
2022/10/16 06:33:06;;;;;;;2.30;1.48;;;12.30;99.90;;;;;;5057666;28;20053;-84
2022/10/16 06:35:32;;;;;;;7.00;1.80;;;12.40;99.90;;;;;;5041268;28;20131;-84
2022/10/16 06:37:58;;;;;;;1.67;1.05;;;12.40;99.90;;;;;;5025062;28;20083;-84
2022/10/16 06:40:23;;;;;;;3.58;1.60;;;12.40;99.90;;;;;;5057743;28;20045;-84
2022/10/16 06:42:50;;;;;;;4.00;1.50;;;12.40;99.90;;;;;;5041705;28;20068;-84
2022/10/16 06:45:15;;;;;;;3.55;1.92;;;12.50;99.90;;;;;;5060181;28;20045;-84
2022/10/16 06:47:41;;;;;;;3.50;1.58;;;12.50;99.90;;;;;;5045880;28;20060;-84
2022/10/16 06:50:07;;;;;;;2.10;1.17;;;12.50;99.90;;;;;;5061915;28;20047;-84
2022/10/16 06:52:34;;;;;;;2.97;1.05;;;12.60;99.90;;;;;;5061796;28;20060;-84
2022/10/16 06:54:59;;;;;;;3.95;1.55;;;12.70;99.90;;;;;;5061965;28;20423;-84
2022/10/16 06:57:26;;;;;;;1.73;1.30;;;12.60;99.90;;;;;;5061754;28;20048;-84
2022/10/16 06:59:51;;;;;;;2.97;1.58;;;12.70;99.90;;;;;;5061824;28;20105;-84
2022/10/16 07:02:17;;;;;;;5.30;1.45;;;12.80;99.90;;;;;;5028258;28;20056;-84
2022/10/16 07:04:43;;;;;;;7.32;1.60;;;12.80;99.90;;;;;;5029292;28;20032;-84
2022/10/16 07:07:08;;;;;;;2.05;1.20;;;12.80;99.90;;;;;;5028099;28;20601;-84
2022/10/16 07:09:34;;;;;;;4.25;1.60;;;12.90;99.90;;;;;;5028282;28;20107;-85
2022/10/16 07:11:59;;;;;;;6.05;1.42;;;12.90;99.90;;;;;;5028319;28;20105;-85
2022/10/16 07:14:25;;;;;;;2.28;1.35;;;12.90;99.90;;;;;;5061143;28;20047;-86
2022/10/16 07:16:51;;;;;;;4.32;1.23;;;13.00;99.90;;;;;;5044944;28;20052;-85
2022/10/16 07:19:17;;;;;;;10.65;1.60;;;13.00;99.90;;;;;;5061133;28;20136;-85
2022/10/16 07:21:44;;;;;;;3.72;1.50;;;13.00;99.90;;;;;;5045685;28;20139;-84
2022/10/16 07:24:15;;;;;;;2.97;1.30;;;13.10;99.90;;;;;;5060777;28;20416;-85
2022/10/16 07:26:42;;;;;;;2.58;1.42;;;13.20;99.90;;;;;;5061202;28;20052;-84
2022/10/16 07:29:20;;;;;;;2.40;1.00;;;13.20;99.90;;;;;;5044354;28;20045;-84
2022/10/16 07:31:46;;;;;;;2.75;1.13;;;13.30;99.90;;;;;;5060505;28;20048;-85
2022/10/16 07:34:14;;;;;;;2.58;0.98;;;13.30;99.90;;;;;;5061493;28;20477;-85
2022/10/16 07:36:40;;;;;;;3.58;1.55;;;13.40;99.90;;;;;;5060733;28;20049;-85
2022/10/16 07:39:06;;;;;;;1.65;0.90;;;13.50;99.90;;;;;;5061732;28;20515;-85
2022/10/16 07:41:32;;;;;;;3.75;1.50;;;13.50;99.90;;;;;;5060399;28;20072;-85
2022/10/16 07:44:00;;;;;;;3.25;1.02;;;13.50;99.90;;;;;;5044353;28;20048;-85
2022/10/16 07:46:26;;;;;;;6.75;1.35;;;13.50;99.90;;;;;;5063755;28;20053;-85
2022/10/16 07:48:52;;;;;;;7.97;1.48;;;13.50;99.90;;;;;;5047154;28;20048;-85
2022/10/16 07:51:20;;;;;;;6.05;1.10;;;13.50;99.90;;;;;;5061191;28;20048;-85
2022/10/16 07:53:46;;;;;;;2.28;0.98;;;13.50;99.90;;;;;;5060227;28;20049;-84
2022/10/16 07:56:13;;;;;;;3.33;1.05;;;13.50;99.90;;;;;;5059924;28;20045;-84
2022/10/16 07:58:39;;;;;;;2.70;0.85;;;13.60;99.90;;;;;;5043650;28;20106;-85
2022/10/16 08:01:07;;;;;;;5.35;0.70;;;13.60;99.90;;;;;;5060200;28;20146;-85
2022/10/16 08:03:33;;;;;;;4.22;1.10;;;13.60;99.90;;;;;;5043592;28;20066;-85
2022/10/16 08:06:00;;;;;;;4.47;0.90;;;13.70;99.90;;;;;;5043709;28;20301;-85
2022/10/16 08:08:26;;;;;;;2.88;0.88;;;13.80;99.90;;;;;;5044347;28;20041;-85
2022/10/16 08:10:52;;;;;;;4.28;1.30;;;13.90;99.90;;;;;;5043120;28;20053;-85
2022/10/16 08:13:18;;;;;;;2.85;0.60;;;13.90;99.90;;;;;;5061107;28;20049;-84
2022/10/16 08:15:44;;;;;;;5.53;0.88;;;14.00;99.90;;;;;;5059925;28;20053;-84
2022/10/16 08:18:12;;;;;;;3.38;0.70;;;14.10;99.90;;;;;;5029225;28;20044;-85
2022/10/16 08:20:38;;;;;;;5.30;0.68;;;14.10;99.90;;;;;;5047361;28;20048;-85
2022/10/16 08:23:04;;;;;;;4.97;1.52;;;14.10;99.90;;;;;;5061558;28;20044;-86
2022/10/16 08:25:30;;;;;;;2.42;1.20;;;14.20;99.90;;;;;;5043286;28;20036;-84
2022/10/16 08:27:55;;;;;;;2.72;1.70;;;14.30;99.90;;;;;;5043170;28;20045;-85
2022/10/16 08:30:23;;;;;;;2.85;1.40;;;14.30;99.90;;;;;;5043831;28;20052;-85
2022/10/16 08:32:50;;;;;;;4.70;1.10;;;14.40;99.90;;;;;;5059573;28;20118;-84
2022/10/16 08:35:16;;;;;;;3.95;1.60;;;14.40;99.90;;;;;;5059966;28;20052;-84
2022/10/16 08:37:42;;;;;;;6.53;1.40;;;14.50;99.90;;;;;;5059721;28;20067;-84
2022/10/16 08:40:19;;;;;;;4.93;1.73;;;14.50;99.90;;;;;;5059661;28;20057;-85
2022/10/16 08:43:03;;;;;;;4.18;1.30;;;14.50;99.90;;;;;;5060318;28;20400;-84
2022/10/16 08:45:33;;;;;;;4.32;1.40;;;14.40;99.90;;;;;;5042633;28;20156;-84
2022/10/16 08:48:16;;;;;;;3.70;1.15;;;14.40;99.90;;;;;;5060111;28;20057;-84
2022/10/16 08:50:43;;;;;;;5.95;1.77;;;14.40;99.90;;;;;;5043108;28;20048;-84
2022/10/16 08:53:17;;;;;;;3.50;1.50;;;14.40;99.90;;;;;;5059377;28;20056;-84
2022/10/16 08:55:53;;;;;;;2.05;1.45;;;14.30;99.90;;;;;;5059904;28;20086;-85
2022/10/16 08:58:27;;;;;;;2.15;1.15;;;14.30;99.90;;;;;;5042456;28;20080;-84
2022/10/16 09:01:00;;;;;;;16.08;1.65;;;14.30;99.90;;;;;;5059572;28;20041;-84
2022/10/16 09:04:03;;;;;;;6.95;1.30;;;14.40;99.90;;;;;;5059183;28;20140;-84
2022/10/16 09:06:55;;;;;;;7.55;1.55;;;14.40;99.90;;;;;;5058891;28;20044;-84
2022/10/16 09:09:49;;;;;;;5.93;1.73;;;14.40;99.90;;;;;;5042844;28;20132;-84
2022/10/16 09:12:31;;;;;;;3.72;1.42;;;14.50;99.90;;;;;;5042562;28;20500;-84
2022/10/16 09:15:18;;;;;;;2.08;0.90;;;14.70;99.90;;;;;;5060419;28;20067;-84
2022/10/16 09:17:59;;;;;;;6.80;1.85;;;14.80;99.90;;;;;;5043001;28;20045;-85
2022/10/16 09:20:25;;;;;;;5.00;1.37;;;14.90;99.90;;;;;;5042516;28;20103;-85
2022/10/16 09:23:03;;;;;;;2.05;1.00;;;15.00;99.90;;;;;;5042364;28;20450;-85
2022/10/16 09:25:28;;;;;;;5.05;1.45;;;15.00;99.90;;;;;;5059260;28;20091;-85
2022/10/16 09:27:55;;;;;;;2.38;0.98;;;15.10;99.90;;;;;;5058492;28;20044;-84
2022/10/16 09:30:22;;;;;;;4.80;1.33;;;15.70;99.90;;;;;;5059423;28;20575;-85
2022/10/16 09:32:52;;;;;;;3.70;0.95;;;16.50;99.90;;;;;;5058311;28;20037;-84
2022/10/16 09:35:24;;;;;;;4.25;1.88;;;17.10;99.90;;;;;;5058842;28;20037;-84
2022/10/16 09:37:54;;;;;;;6.80;1.20;;;17.70;99.90;;;;;;5058696;28;20071;-85
2022/10/16 09:40:37;;;;;;;3.17;1.00;;;18.00;99.90;;;;;;5042104;28;20403;-85
2022/10/16 09:43:30;;;;;;;5.70;1.00;;;18.30;99.90;;;;;;5059395;28;20120;-85
2022/10/16 09:46:03;;;;;;;5.47;1.05;;;18.60;99.90;;;;;;5058130;28;20045;-84
2022/10/16 09:48:43;;;;;;;1.67;0.80;;;18.90;99.90;;;;;;5058474;28;20113;-85
2022/10/16 09:51:29;;;;;;;7.97;1.23;;;19.00;99.90;;;;;;5058941;28;20100;-85
2022/10/16 09:54:17;;;;;;;7.22;1.42;;;18.80;99.90;;;;;;5057949;28;20083;-84
2022/10/16 09:56:45;;;;;;;4.72;1.08;;;18.70;99.90;;;;;;5058755;28;20036;-86
2022/10/16 09:59:12;;;;;;;6.78;1.10;;;18.40;99.90;;;;;;5058450;28;20582;-85
2022/10/16 10:01:47;;;;;;;6.20;0.63;;;18.10;99.90;;;;;;5058199;28;20045;-84
2022/10/16 10:04:13;;;;;;;6.20;1.10;;;17.80;99.90;;;;;;5042156;28;20049;-84
2022/10/16 10:06:54;;;;;;;5.68;1.25;;;17.50;99.90;;;;;;5041246;28;20134;-85
2022/10/16 10:09:30;;;;;;;6.30;1.17;;;17.20;99.90;;;;;;5058319;28;20049;-84
2022/10/16 10:11:58;;;;;;;8.68;1.42;;;17.10;99.90;;;;;;5057954;28;20598;-85
2022/10/16 10:14:38;;;;;;;6.10;1.02;;;17.00;99.90;;;;;;5058013;28;20045;-84
2022/10/16 10:17:15;;;;;;;7.75;1.38;;;17.00;99.90;;;;;;5042105;28;20167;-85
2022/10/16 10:19:51;;;;;;;6.32;1.20;;;16.80;99.90;;;;;;5057185;28;20052;-85
2022/10/16 10:22:44;;;;;;;3.95;1.40;;;16.80;99.90;;;;;;5058284;28;20049;-86
2022/10/16 10:25:12;;;;;;;6.18;1.17;;;16.70;99.90;;;;;;5060316;28;20061;-85
2022/10/16 10:27:47;;;;;;;10.05;1.00;;;16.70;99.90;;;;;;5062095;28;20079;-85
2022/10/16 10:30:42;;;;;;;8.85;1.35;;;16.70;99.90;;;;;;5061807;28;20041;-84
2022/10/16 10:33:22;;;;;;;5.28;1.35;;;16.60;99.90;;;;;;5057594;28;20057;-85
2022/10/16 10:36:19;;;;;;;9.70;1.27;;;16.60;99.90;;;;;;5041269;28;20056;-84
2022/10/16 10:39:09;;;;;;;6.90;2.60;;;16.60;99.90;;;;;;5044989;28;20044;-85
2022/10/16 10:42:05;;;;;;;12.75;1.42;;;16.60;99.90;;;;;;5062312;28;20179;-85
2022/10/16 10:44:55;;;;;;;8.10;1.17;;;16.70;99.90;;;;;;5061994;28;20072;-83
2022/10/16 10:47:42;;;;;;;9.07;1.45;;;16.70;99.90;;;;;;5062761;28;20048;-84
2022/10/16 10:50:24;;;;;;;8.15;1.55;;;16.80;99.90;;;;;;5042323;28;20104;-85
2022/10/16 10:53:06;;;;;;;3.80;1.00;;;16.80;99.90;;;;;;5058005;28;20055;-84
2022/10/16 10:55:43;;;;;;;13.30;1.40;;;16.80;99.90;;;;;;5060745;28;20045;-85
2022/10/16 10:58:20;;;;;;;8.02;0.93;;;16.90;99.90;;;;;;5061767;28;20052;-84
2022/10/16 11:00:54;;;;;;;9.15;1.30;;;17.00;99.90;;;;;;5060656;28;20051;-84
2022/10/16 11:03:45;;;;;;;5.43;1.17;;;16.90;99.90;;;;;;5057778;28;20063;-84
2022/10/16 11:06:24;;;;;;;5.38;1.50;;;16.90;99.90;;;;;;5057463;28;20499;-84
2022/10/16 11:09:09;;;;;;;4.18;1.00;;;17.00;99.90;;;;;;5058287;28;20051;-85
2022/10/16 11:11:41;;;;;;;6.63;1.60;;;17.20;99.90;;;;;;5057183;28;20143;-85
2022/10/16 11:14:17;;;;;;;5.93;1.40;;;17.40;99.90;;;;;;5057916;28;20127;-85
2022/10/16 11:17:00;;;;;;;6.18;1.05;;;17.50;99.90;;;;;;5057678;28;20064;-84
2022/10/16 11:19:47;;;;;;;10.32;1.70;;;17.50;99.90;;;;;;5040556;28;20033;-85
2022/10/16 11:22:34;;;;;;;5.35;1.40;;;17.50;99.90;;;;;;5057764;28;20472;-85
2022/10/16 11:25:21;;;;;;;5.20;1.55;;;17.50;99.90;;;;;;5040686;28;20082;-85
2022/10/16 11:28:05;;;;;;;6.25;1.70;;;17.50;99.90;;;;;;5057153;28;20155;-85
2022/10/16 11:30:40;;;;;;;11.30;1.40;;;17.40;99.90;;;;;;5042844;28;20053;-85
2022/10/16 11:33:09;;;;;;;8.02;0.98;;;17.20;99.90;;;;;;5044186;28;20048;-84
2022/10/16 11:36:04;;;;;;;8.68;1.45;;;17.20;99.90;;;;;;5061226;28;20056;-84
2022/10/16 11:38:44;;;;;;;6.32;1.52;;;17.20;99.90;;;;;;5061559;28;20056;-85
2022/10/16 11:41:29;;;;;;;5.93;1.30;;;17.30;99.90;;;;;;5060780;28;20496;-85
2022/10/16 11:44:13;;;;;;;5.18;1.13;;;17.40;99.90;;;;;;5061648;28;20056;-86
2022/10/16 11:46:43;;;;;;;4.72;1.10;;;17.40;99.90;;;;;;5044557;28;20837;-86
2022/10/16 11:49:22;;;;;;;5.20;1.70;;;17.40;99.90;;;;;;5046293;28;20144;-84
2022/10/16 11:52:07;;;;;;;3.65;1.77;;;17.50;99.90;;;;;;5046894;28;20045;-85
2022/10/16 11:54:51;;;;;;;8.25;1.23;;;17.50;99.90;;;;;;5060669;28;20055;-85
2022/10/16 11:57:27;;;;;;;9.75;1.63;;;17.50;99.90;;;;;;5060664;28;20040;-86
2022/10/16 12:00:02;;;;;;;4.18;0.93;;;17.40;99.90;;;;;;5061082;28;20045;-86
2022/10/16 12:02:30;;;;;;;6.35;1.20;;;17.40;99.90;;;;;;5042982;28;20057;-86
2022/10/16 12:05:11;;;;;;;6.82;1.27;;;17.40;99.90;;;;;;5061292;28;20364;-85
2022/10/16 12:07:43;;;;;;;6.00;1.15;;;17.50;99.90;;;;;;5043493;28;20045;-85
2022/10/16 12:10:27;;;;;;;5.78;0.85;;;17.50;99.90;;;;;;5043726;28;20060;-85
2022/10/16 12:12:53;;;;;;;3.00;1.30;;;17.40;99.90;;;;;;5060863;28;20057;-86
2022/10/16 12:15:22;;;;;;;9.18;2.10;;;17.30;99.90;;;;;;5060082;28;20129;-85
2022/10/16 12:17:48;;;;;;;6.55;1.48;;;17.30;99.90;;;;;;5060586;28;20048;-86
2022/10/16 12:20:17;;;;;;;4.80;1.25;;;17.40;99.90;;;;;;5060130;28;20045;-86
2022/10/16 12:22:55;;;;;;;7.60;1.42;;;17.50;99.90;;;;;;5060159;28;20075;-85
2022/10/16 12:25:46;;;;;;;5.85;1.05;;;17.50;99.90;;;;;;5060263;28;20045;-85
2022/10/16 12:28:14;;;;;;;5.05;1.13;;;17.60;99.90;;;;;;5059498;28;20417;-86
2022/10/16 12:30:42;;;;;;;5.93;1.23;;;17.80;99.90;;;;;;5060792;28;20052;-85
2022/10/16 12:33:24;;;;;;;7.53;1.40;;;17.90;99.90;;;;;;5043227;28;20045;-85
2022/10/16 12:35:50;;;;;;;9.07;1.33;;;17.90;99.90;;;;;;5059703;28;20041;-85
2022/10/16 12:38:32;;;;;;;6.63;1.35;;;17.80;99.90;;;;;;5027336;28;20048;-84
2022/10/16 12:41:04;;;;;;;5.60;1.08;;;17.60;99.90;;;;;;5059587;28;20071;-85
2022/10/16 12:43:42;;;;;;;8.13;1.38;;;17.40;99.90;;;;;;5042846;28;20056;-85
2022/10/16 12:46:10;;;;;;;5.18;1.65;;;17.20;99.90;;;;;;5059847;28;20392;-85
2022/10/16 12:48:38;;;;;;;12.00;1.95;;;17.00;99.90;;;;;;5042999;28;20053;-85
2022/10/16 12:51:23;;;;;;;7.03;1.45;;;16.90;99.90;;;;;;5043204;28;20104;-84
2022/10/16 12:54:18;;;;;;;9.43;1.90;;;16.90;99.90;;;;;;5042792;28;20048;-86
2022/10/16 12:57:03;;;;;;;9.90;2.15;;;16.90;99.90;;;;;;5054806;28;20048;-85
2022/10/16 12:59:56;;;;;;;6.38;1.58;;;17.20;99.90;;;;;;5059449;28;20044;-85
2022/10/16 13:02:37;;;;;;;7.35;1.65;;;17.30;99.90;;;;;;5058955;28;20048;-85
2022/10/16 13:05:18;;;;;;;6.68;1.20;;;17.40;99.90;;;;;;5061135;28;20070;-85
2022/10/16 13:08:14;;;;;;;4.93;1.20;;;17.40;99.90;;;;;;5046689;28;20049;-85
2022/10/16 13:11:04;;;;;;;9.25;1.15;;;17.40;99.90;;;;;;5042325;28;20423;-86